Time;durP1;ratioP1;P1;durP2;ratioP2;P2;SDS_P1;SDS_P2;PMS_P1;PMS_P2;Temp;Humidity;BMP_temperature;BMP_pressure;BME280_temperature;BME280_humidity;BME280_pressure;Samples;Min_cycle;Max_cycle;Signal;HPM_P1;HPM_P2
2022/10/05 00:01:45;;;;;;;21.23;14.02;;;14.50;99.90;;;;;;5073623;28;20049;-70
2022/10/05 00:04:17;;;;;;;18.75;13.25;;;14.70;99.90;;;;;;5073601;28;20058;-70
2022/10/05 00:07:07;;;;;;;21.58;13.77;;;14.50;99.90;;;;;;5073884;28;20048;-71
2022/10/05 00:09:34;;;;;;;21.08;13.48;;;15.00;99.90;;;;;;5073497;28;20080;-70
2022/10/05 00:12:11;;;;;;;19.45;13.73;;;14.80;99.90;;;;;;5073510;28;20044;-70
2022/10/05 00:14:38;;;;;;;17.20;12.68;;;14.60;99.90;;;;;;5074080;28;20049;-71
2022/10/05 00:17:04;;;;;;;20.25;13.38;;;14.90;99.90;;;;;;5073384;28;20177;-71
2022/10/05 00:19:33;;;;;;;18.75;12.65;;;14.70;99.90;;;;;;5073413;28;20051;-69
2022/10/05 00:22:07;;;;;;;21.25;13.30;;;15.10;99.90;;;;;;5074119;28;20044;-68
2022/10/05 00:24:33;;;;;;;20.50;12.00;;;14.70;99.90;;;;;;5073080;28;20500;-70
2022/10/05 00:27:00;;;;;;;24.42;12.73;;;14.70;99.90;;;;;;5073367;28;20142;-71
2022/10/05 00:29:26;;;;;;;16.30;11.57;;;14.80;99.90;;;;;;5073219;28;20044;-70
2022/10/05 00:31:52;;;;;;;17.85;11.48;;;14.70;99.90;;;;;;5073536;28;20040;-71
2022/10/05 00:34:17;;;;;;;;;;;15.00;99.90;;;;;;5073660;28;20078;-71
2022/10/05 00:36:44;;;;;;;17.38;10.68;;;14.70;99.90;;;;;;5073268;28;19974;-70
2022/10/05 00:39:10;;;;;;;15.38;10.30;;;14.90;99.90;;;;;;5073144;28;20037;-70
2022/10/05 00:42:09;;;;;;;15.02;9.05;;;14.70;99.90;;;;;;5072918;28;20040;-69
2022/10/05 00:44:58;;;;;;;16.17;9.30;;;14.50;99.90;;;;;;5074004;28;20052;-69
2022/10/05 00:47:47;;;;;;;14.00;9.63;;;14.70;99.90;;;;;;5073131;28;20123;-69
2022/10/05 00:50:35;;;;;;;18.70;10.00;;;14.70;99.90;;;;;;5073872;28;20040;-70
2022/10/05 00:53:31;;;;;;;13.80;8.75;;;14.60;99.90;;;;;;5073937;28;20048;-70
2022/10/05 00:56:03;;;;;;;16.85;9.00;;;14.80;99.90;;;;;;5073096;28;20110;-70
2022/10/05 00:58:48;;;;;;;10.15;7.80;;;14.50;99.90;;;;;;5072982;28;20551;-70
2022/10/05 01:01:32;;;;;;;12.82;7.90;;;15.00;99.90;;;;;;5073048;28;20131;-70
2022/10/05 01:04:04;;;;;;;11.45;7.38;;;14.90;99.90;;;;;;5055171;28;20040;-70
2022/10/05 01:06:57;;;;;;;12.90;8.13;;;14.60;99.90;;;;;;5073265;28;20412;-70
2022/10/05 01:09:42;;;;;;;10.90;8.15;;;14.60;99.90;;;;;;5072524;28;20504;-70
2022/10/05 01:12:35;;;;;;;11.38;7.85;;;14.70;99.90;;;;;;5073466;28;20197;-70
2022/10/05 01:15:27;;;;;;;12.18;8.68;;;14.90;99.90;;;;;;5073427;28;20374;-69
2022/10/05 01:18:49;;;;;;;12.07;8.82;;;14.70;99.90;;;;;;5072791;28;20181;-71
2022/10/05 01:21:25;;;;;;;12.52;8.05;;;14.60;99.90;;;;;;4971911;28;20046;-70
2022/10/05 01:23:59;;;;;;;14.15;9.18;;;14.50;99.90;;;;;;4971770;28;20055;-71
2022/10/05 01:26:46;;;;;;;11.57;8.45;;;14.90;99.90;;;;;;5031253;28;20110;-71
2022/10/05 01:29:29;;;;;;;13.07;8.23;;;14.80;99.90;;;;;;5073220;28;20393;-70
2022/10/05 01:32:09;;;;;;;10.10;7.68;;;15.10;99.90;;;;;;5054893;28;20047;-71
2022/10/05 01:34:40;;;;;;;11.60;7.90;;;14.80;99.90;;;;;;5072943;28;20048;-69
2022/10/05 01:37:11;;;;;;;13.35;8.15;;;14.80;99.90;;;;;;5073484;28;20205;-71
2022/10/05 01:40:06;;;;;;;11.88;7.88;;;14.70;99.90;;;;;;5055383;28;20040;-70
2022/10/05 01:42:55;;;;;;;14.85;8.82;;;15.10;99.90;;;;;;5073392;28;20057;-70
2022/10/05 01:45:51;;;;;;;12.65;8.65;;;15.00;99.90;;;;;;5072677;28;20120;-69
2022/10/05 01:48:28;;;;;;;12.52;8.18;;;14.40;99.90;;;;;;5073375;28;20079;-70
2022/10/05 01:51:23;;;;;;;12.23;7.63;;;14.80;99.90;;;;;;5072811;28;20457;-69
2022/10/05 01:53:55;;;;;;;15.55;8.13;;;14.30;99.90;;;;;;5074982;28;20415;-70
2022/10/05 01:56:29;;;;;;;10.68;7.88;;;14.50;99.90;;;;;;5076313;28;20067;-71
2022/10/05 01:59:42;;;;;;;10.75;7.75;;;14.80;99.90;;;;;;5076856;28;20059;-70
2022/10/05 02:02:15;;;;;;;12.52;7.60;;;14.80;99.90;;;;;;5049895;28;20083;-71
2022/10/05 02:04:50;;;;;;;11.40;7.43;;;14.50;99.90;;;;;;5076165;28;20122;-71
2022/10/05 02:07:42;;;;;;;13.65;8.13;;;14.40;99.90;;;;;;5075888;28;20472;-70
2022/10/05 02:10:34;;;;;;;11.90;7.80;;;14.60;99.90;;;;;;5075745;28;20090;-70
2022/10/05 02:13:14;;;;;;;14.52;8.07;;;14.70;99.90;;;;;;5074841;28;20071;-70
2022/10/05 02:16:12;;;;;;;10.35;7.85;;;14.90;99.90;;;;;;5075727;28;20102;-70
2022/10/05 02:18:45;;;;;;;14.05;8.02;;;14.60;99.90;;;;;;5054178;28;20136;-70
2022/10/05 02:21:12;;;;;;;12.70;8.48;;;14.70;99.90;;;;;;5075892;28;20045;-70
2022/10/05 02:23:41;;;;;;;12.13;8.20;;;14.90;99.90;;;;;;5075493;28;20523;-71
2022/10/05 02:26:10;;;;;;;11.93;8.70;;;14.60;99.90;;;;;;5075963;28;20048;-71
2022/10/05 02:29:04;;;;;;;11.80;8.18;;;14.70;99.90;;;;;;5075438;28;20051;-71
2022/10/05 02:31:42;;;;;;;10.80;7.75;;;14.70;99.90;;;;;;5075692;28;20063;-71
2022/10/05 02:34:27;;;;;;;13.20;8.70;;;14.70;99.90;;;;;;5075915;28;20381;-71
2022/10/05 02:37:17;;;;;;;15.10;8.10;;;14.70;99.90;;;;;;5075497;28;20112;-71
2022/10/05 02:40:04;;;;;;;16.20;8.18;;;14.60;99.90;;;;;;5075698;28;20575;-69
2022/10/05 02:42:44;;;;;;;12.70;8.38;;;14.50;99.90;;;;;;5075294;28;20477;-69
2022/10/05 02:45:35;;;;;;;14.27;8.30;;;14.80;99.90;;;;;;5075733;28;20086;-70
2022/10/05 02:48:09;;;;;;;12.63;8.73;;;14.50;99.90;;;;;;5075177;28;20048;-69
2022/10/05 02:50:41;;;;;;;11.43;8.20;;;14.70;99.90;;;;;;5074967;28;20084;-70
2022/10/05 02:53:22;;;;;;;14.80;8.98;;;14.60;99.90;;;;;;5075015;28;20048;-69
2022/10/05 02:55:57;;;;;;;13.82;8.40;;;14.70;99.90;;;;;;5075745;28;20040;-70
2022/10/05 02:58:27;;;;;;;11.60;8.30;;;14.40;99.90;;;;;;5075445;28;20060;-70
2022/10/05 03:00:58;;;;;;;12.25;8.57;;;14.80;99.90;;;;;;5075602;28;20093;-71
2022/10/05 03:03:49;;;;;;;16.65;8.82;;;14.80;99.90;;;;;;5056858;28;20051;-70
2022/10/05 03:06:23;;;;;;;12.65;8.13;;;14.80;99.90;;;;;;5074838;28;20044;-70
2022/10/05 03:09:03;;;;;;;15.02;8.02;;;14.50;99.90;;;;;;5074590;28;20123;-71
2022/10/05 03:12:03;;;;;;;13.65;8.25;;;14.90;99.90;;;;;;5074924;28;20124;-71
2022/10/05 03:14:48;;;;;;;15.75;9.48;;;14.70;99.90;;;;;;5056687;28;20052;-70
2022/10/05 03:17:38;;;;;;;15.73;8.75;;;14.80;99.90;;;;;;5075010;28;20044;-70
2022/10/05 03:20:17;;;;;;;12.68;8.80;;;14.70;99.90;;;;;;5074396;28;20037;-71
2022/10/05 03:22:59;;;;;;;13.30;7.88;;;14.80;99.90;;;;;;5074458;28;20125;-70
2022/10/05 03:25:50;;;;;;;16.40;8.35;;;15.00;99.90;;;;;;5074958;28;20127;-70
2022/10/05 03:28:33;;;;;;;13.50;7.75;;;14.80;99.90;;;;;;5074276;28;20381;-70
2022/10/05 03:31:14;;;;;;;10.95;7.75;;;14.60;99.90;;;;;;5074170;28;20105;-70
2022/10/05 03:34:00;;;;;;;12.02;7.80;;;14.50;99.90;;;;;;5074204;28;20128;-71
2022/10/05 03:36:45;;;;;;;11.23;7.18;;;14.60;99.90;;;;;;5073023;28;20458;-69
2022/10/05 03:39:30;;;;;;;11.43;7.57;;;14.80;99.90;;;;;;5074109;28;20049;-70
2022/10/05 03:42:14;;;;;;;11.57;7.25;;;14.50;99.90;;;;;;5074522;28;20067;-70
2022/10/05 03:44:58;;;;;;;9.90;6.40;;;14.90;99.90;;;;;;5073994;28;20049;-71
2022/10/05 03:47:32;;;;;;;9.10;6.13;;;14.60;99.90;;;;;;5073928;28;20040;-70
2022/10/05 03:50:06;;;;;;;10.90;5.45;;;14.50;99.90;;;;;;5056288;28;20045;-71
2022/10/05 03:52:40;;;;;;;6.90;5.15;;;14.60;99.90;;;;;;5073814;28;20052;-71
2022/10/05 03:55:51;;;;;;;9.73;5.47;;;14.70;99.90;;;;;;5073805;28;20048;-70
2022/10/05 03:58:26;;;;;;;9.93;5.88;;;14.90;99.90;;;;;;5019085;28;20071;-70
2022/10/05 04:00:56;;;;;;;8.18;4.80;;;14.80;99.90;;;;;;5073737;28;20053;-70
2022/10/05 04:03:37;;;;;;;7.07;4.15;;;15.00;99.90;;;;;;5074266;28;20387;-69
2022/10/05 04:06:13;;;;;;;8.73;4.22;;;14.90;99.90;;;;;;5074108;28;20114;-71
2022/10/05 04:08:39;;;;;;;6.90;4.47;;;14.60;99.90;;;;;;5074108;28;20044;-69
2022/10/05 04:11:33;;;;;;;15.65;5.68;;;14.70;99.90;;;;;;5073562;28;20048;-69
2022/10/05 04:14:17;;;;;;;6.57;4.90;;;14.70;99.90;;;;;;5067491;28;20052;-70
2022/10/05 04:16:49;;;;;;;8.07;5.07;;;14.60;99.90;;;;;;5073793;28;20040;-70
2022/10/05 04:19:25;;;;;;;7.28;5.13;;;15.00;99.90;;;;;;5073515;28;20127;-70
2022/10/05 04:21:56;;;;;;;7.88;4.50;;;14.50;99.90;;;;;;5074011;28;20354;-69
2022/10/05 04:24:56;;;;;;;8.10;4.65;;;14.90;99.90;;;;;;5074204;28;20070;-70
2022/10/05 04:27:31;;;;;;;6.10;4.30;;;15.10;99.90;;;;;;5026130;28;20059;-71
2022/10/05 04:30:04;;;;;;;5.22;3.80;;;14.60;99.90;;;;;;5073478;28;20562;-71
2022/10/05 04:32:41;;;;;;;7.53;4.32;;;14.90;99.90;;;;;;5074117;28;20084;-70
2022/10/05 04:35:33;;;;;;;7.15;4.43;;;14.90;99.90;;;;;;5073339;28;20051;-69
2022/10/05 04:38:20;;;;;;;9.23;4.22;;;15.00;99.90;;;;;;5074085;28;20072;-71
2022/10/05 04:41:11;;;;;;;9.05;4.70;;;15.00;99.90;;;;;;5073339;28;20045;-70
2022/10/05 04:43:55;;;;;;;7.43;4.70;;;14.70;99.90;;;;;;5059680;28;20053;-70
2022/10/05 04:46:35;;;;;;;11.23;5.47;;;14.70;99.90;;;;;;5073718;28;20131;-70
2022/10/05 04:49:03;;;;;;;10.55;5.53;;;14.70;99.90;;;;;;5073125;28;20044;-68
2022/10/05 04:51:38;;;;;;;10.05;5.85;;;14.80;99.90;;;;;;5073692;28;20144;-70
2022/10/05 04:54:26;;;;;;;8.45;5.57;;;14.80;99.90;;;;;;5073080;28;20040;-70
2022/10/05 04:56:58;;;;;;;11.75;4.93;;;14.60;99.90;;;;;;5072768;28;20552;-69
2022/10/05 04:59:34;;;;;;;9.88;5.70;;;14.70;99.90;;;;;;5072686;28;20503;-70
2022/10/05 05:02:30;;;;;;;9.65;5.68;;;14.80;99.90;;;;;;5073009;28;20048;-68
2022/10/05 05:05:13;;;;;;;8.18;5.88;;;14.70;99.90;;;;;;5073576;28;20366;-69
2022/10/05 05:08:11;;;;;;;10.68;5.95;;;14.30;99.90;;;;;;5072915;28;20091;-69
2022/10/05 05:10:51;;;;;;;9.23;5.43;;;14.70;99.90;;;;;;5072966;28;20051;-68
2022/10/05 05:13:31;;;;;;;8.05;6.05;;;14.50;99.90;;;;;;5073203;28;20048;-69
2022/10/05 05:16:22;;;;;;;10.88;6.03;;;14.60;99.90;;;;;;5072904;28;20041;-69
2022/10/05 05:19:06;;;;;;;10.02;6.22;;;14.60;99.90;;;;;;5072943;28;20054;-68
2022/10/05 05:21:55;;;;;;;7.88;6.25;;;14.60;99.90;;;;;;5073601;28;20045;-70
2022/10/05 05:24:27;;;;;;;8.80;5.80;;;14.40;99.90;;;;;;5055470;28;20044;-70
2022/10/05 05:27:23;;;;;;;10.30;5.72;;;14.60;99.90;;;;;;5072765;28;20052;-71
2022/10/05 05:30:03;;;;;;;9.23;6.13;;;14.60;99.90;;;;;;5058703;28;20037;-70
2022/10/05 05:32:28;;;;;;;11.10;6.88;;;14.80;99.90;;;;;;5077304;28;20274;-70
2022/10/05 05:35:03;;;;;;;11.93;6.20;;;14.50;99.90;;;;;;5076522;28;20396;-71
2022/10/05 05:37:40;;;;;;;10.25;6.32;;;14.50;99.90;;;;;;5076750;28;20413;-68
2022/10/05 05:40:16;;;;;;;11.82;7.05;;;14.70;99.90;;;;;;5076110;28;20485;-68
2022/10/05 05:43:00;;;;;;;11.13;6.80;;;14.60;99.90;;;;;;5076051;28;20448;-70
2022/10/05 05:45:38;;;;;;;11.25;7.18;;;14.60;99.90;;;;;;5076298;28;20056;-69
2022/10/05 05:48:28;;;;;;;10.30;7.70;;;14.40;99.90;;;;;;5076514;28;20059;-70
2022/10/05 05:51:07;;;;;;;17.75;7.50;;;14.70;99.90;;;;;;5075160;28;20132;-70
2022/10/05 05:53:46;;;;;;;13.35;7.50;;;14.70;99.90;;;;;;5076435;28;20406;-70
2022/10/05 05:56:20;;;;;;;13.20;7.78;;;14.70;99.90;;;;;;5076178;28;20060;-69
2022/10/05 05:58:58;;;;;;;12.27;7.90;;;14.20;99.90;;;;;;5076519;28;20059;-67
2022/10/05 06:01:44;;;;;;;12.45;8.02;;;14.60;99.90;;;;;;5075989;28;20071;-68
2022/10/05 06:04:17;;;;;;;12.57;8.20;;;14.60;99.90;;;;;;5075847;28;20496;-70
2022/10/05 06:06:48;;;;;;;14.75;8.32;;;14.50;99.90;;;;;;5075279;28;20044;-71
2022/10/05 06:09:21;;;;;;;17.08;8.02;;;14.50;99.90;;;;;;5076212;28;20052;-70
2022/10/05 06:11:53;;;;;;;13.75;7.93;;;14.40;99.90;;;;;;5076527;28;20051;-69
2022/10/05 06:14:38;;;;;;;12.00;7.43;;;14.40;99.90;;;;;;5075570;28;20044;-69
2022/10/05 06:17:17;;;;;;;12.13;7.32;;;14.40;99.90;;;;;;5075674;28;20051;-70
2022/10/05 06:19:45;;;;;;;13.75;7.20;;;14.70;99.90;;;;;;5075675;28;20205;-69
2022/10/05 06:22:22;;;;;;;10.10;7.47;;;14.60;99.90;;;;;;5075232;28;20052;-73
2022/10/05 06:25:10;;;;;;;11.88;7.68;;;14.30;99.90;;;;;;5075444;28;20040;-69
2022/10/05 06:28:09;;;;;;;14.27;8.32;;;14.40;99.90;;;;;;5075727;28;20399;-68
2022/10/05 06:31:07;;;;;;;12.15;7.55;;;14.70;99.90;;;;;;5075324;28;20087;-70
2022/10/05 06:33:42;;;;;;;11.77;7.35;;;14.70;99.90;;;;;;5076000;28;20056;-70
2022/10/05 06:36:31;;;;;;;10.55;7.45;;;14.70;99.90;;;;;;5075341;28;20048;-69
2022/10/05 06:39:11;;;;;;;12.75;7.57;;;14.60;99.90;;;;;;5074799;28;20048;-69
2022/10/05 06:41:53;;;;;;;11.10;6.97;;;14.70;99.90;;;;;;5075309;28;20088;-71
2022/10/05 06:44:24;;;;;;;11.32;7.32;;;14.60;99.90;;;;;;5075720;28;20044;-70
2022/10/05 06:47:09;;;;;;;11.23;7.55;;;14.80;99.90;;;;;;5057384;28;20052;-71
2022/10/05 06:50:11;;;;;;;10.10;6.80;;;15.10;99.90;;;;;;5075528;28;20036;-69
2022/10/05 06:53:03;;;;;;;10.32;7.13;;;14.80;99.90;;;;;;5074990;28;20239;-71
2022/10/05 06:55:45;;;;;;;16.02;6.95;;;14.90;99.90;;;;;;5074975;28;20052;-69
2022/10/05 06:58:22;;;;;;;16.98;7.40;;;14.90;99.90;;;;;;5074573;28;20053;-70
2022/10/05 07:00:59;;;;;;;12.07;6.53;;;14.70;99.90;;;;;;5075537;28;20373;-69
2022/10/05 07:04:03;;;;;;;11.77;7.35;;;15.20;99.90;;;;;;5057523;28;20040;-71
2022/10/05 07:06:52;;;;;;;10.30;6.25;;;14.90;99.90;;;;;;5061378;28;20078;-69
2022/10/05 07:09:40;;;;;;;12.23;6.35;;;14.60;99.90;;;;;;5075180;28;20345;-69
2022/10/05 07:12:14;;;;;;;9.77;6.25;;;14.80;99.90;;;;;;5073938;28;20040;-71
2022/10/05 07:14:49;;;;;;;11.05;6.35;;;15.10;99.90;;;;;;5074207;28;20458;-68
2022/10/05 07:17:30;;;;;;;9.38;5.63;;;15.30;99.90;;;;;;5074353;28;20078;-71
2022/10/05 07:20:14;;;;;;;9.23;6.00;;;15.40;99.90;;;;;;5074336;28;20040;-67
2022/10/05 07:22:54;;;;;;;8.15;5.40;;;14.90;99.90;;;;;;5074792;28;20056;-71
2022/10/05 07:25:27;;;;;;;8.95;6.00;;;15.00;99.90;;;;;;5074165;28;20053;-70
2022/10/05 07:28:04;;;;;;;9.45;5.35;;;15.30;99.90;;;;;;5074993;28;20052;-77
2022/10/05 07:30:36;;;;;;;7.60;5.85;;;15.10;99.90;;;;;;5056198;28;20050;-71
2022/10/05 07:33:05;;;;;;;8.93;5.60;;;15.10;99.90;;;;;;5074310;28;20053;-70
2022/10/05 07:38:32;;;;;;;8.43;5.53;;;15.20;99.90;;;;;;5074073;28;20106;-69
2022/10/05 07:41:09;;;;;;;9.45;6.38;;;15.00;99.90;;;;;;5073899;28;20087;-68
2022/10/05 07:43:38;;;;;;;8.73;5.43;;;15.40;99.90;;;;;;5073890;28;20052;-69
2022/10/05 07:46:15;;;;;;;9.68;5.45;;;15.10;99.90;;;;;;5073785;28;20185;-71
2022/10/05 07:48:59;;;;;;;7.80;5.07;;;15.20;99.90;;;;;;5073605;28;20045;-69
2022/10/05 07:51:31;;;;;;;8.93;4.72;;;15.20;99.90;;;;;;5073040;28;20048;-68
2022/10/05 07:54:22;;;;;;;6.43;5.10;;;15.20;99.90;;;;;;5073849;28;20051;-73
2022/10/05 07:57:16;;;;;;;7.03;4.68;;;14.90;99.90;;;;;;5073622;28;20052;-67
2022/10/05 07:59:49;;;;;;;6.20;4.75;;;15.30;99.90;;;;;;5074560;28;20346;-70
2022/10/05 08:02:27;;;;;;;7.55;4.38;;;14.90;99.90;;;;;;5074181;28;20087;-69
2022/10/05 08:05:04;;;;;;;8.02;4.47;;;15.40;99.90;;;;;;5073574;28;20062;-69
2022/10/05 08:07:33;;;;;;;5.30;4.30;;;15.30;99.90;;;;;;5073652;28;20369;-67
2022/10/05 08:10:26;;;;;;;5.85;4.32;;;15.50;99.90;;;;;;5073958;28;20177;-68
2022/10/05 08:13:18;;;;;;;6.55;4.18;;;15.30;99.90;;;;;;5074099;28;20428;-68
2022/10/05 08:15:52;;;;;;;6.85;3.97;;;15.70;99.90;;;;;;5073518;28;20048;-67
2022/10/05 08:18:38;;;;;;;5.45;3.47;;;15.40;99.90;;;;;;5073897;28;20094;-68
2022/10/05 08:21:10;;;;;;;5.05;3.35;;;15.40;99.90;;;;;;5073325;28;20078;-69
2022/10/05 08:23:55;;;;;;;7.45;3.80;;;16.00;99.90;;;;;;5073854;28;20453;-68
2022/10/05 08:26:54;;;;;;;4.93;3.25;;;15.90;99.90;;;;;;5073789;28;20049;-69
2022/10/05 08:29:25;;;;;;;5.55;3.25;;;16.00;99.90;;;;;;5073771;28;20045;-68
2022/10/05 08:31:57;;;;;;;7.50;3.13;;;16.00;99.90;;;;;;5073358;28;20075;-67
2022/10/05 08:34:29;;;;;;;3.40;2.70;;;16.10;99.90;;;;;;5073640;28;20048;-70
2022/10/05 08:37:10;;;;;;;3.50;2.70;;;16.10;99.90;;;;;;5073818;28;20052;-69
2022/10/05 08:39:54;;;;;;;4.25;2.83;;;16.40;99.90;;;;;;5073254;28;20055;-69
2022/10/05 08:42:25;;;;;;;6.68;2.80;;;16.60;99.90;;;;;;5073718;28;20060;-68
2022/10/05 08:45:16;;;;;;;4.68;2.90;;;16.30;99.90;;;;;;5073208;28;20131;-68
2022/10/05 08:48:13;;;;;;;3.92;2.58;;;16.40;99.90;;;;;;5073118;28;20056;-71
2022/10/05 08:50:53;;;;;;;5.03;2.80;;;16.40;99.90;;;;;;5039152;28;20048;-70
2022/10/05 08:53:55;;;;;;;4.93;2.58;;;16.30;99.90;;;;;;5073967;28;20044;-68
2022/10/05 08:56:35;;;;;;;4.15;2.60;;;16.40;99.90;;;;;;5073879;28;20396;-67
2022/10/05 08:59:23;;;;;;;9.57;3.10;;;16.70;99.90;;;;;;5073156;28;20492;-67
2022/10/05 09:02:07;;;;;;;3.63;2.45;;;16.70;99.90;;;;;;5073710;28;20492;-69
2022/10/05 09:04:57;;;;;;;5.90;2.53;;;16.40;99.90;;;;;;5077169;28;20477;-69
2022/10/05 09:07:51;;;;;;;4.32;2.90;;;16.50;99.90;;;;;;5077590;28;20084;-68
2022/10/05 09:10:29;;;;;;;6.63;2.67;;;17.00;99.90;;;;;;5077643;28;20080;-70
2022/10/05 09:13:18;;;;;;;4.53;2.80;;;16.50;99.90;;;;;;5076899;28;20051;-68
2022/10/05 09:16:10;;;;;;;8.63;3.50;;;16.70;99.90;;;;;;5076897;28;20052;-68
2022/10/05 09:19:14;;;;;;;9.45;2.88;;;17.20;99.90;;;;;;5076754;28;20052;-69
2022/10/05 09:21:42;;;;;;;5.15;2.45;;;16.70;99.90;;;;;;5076744;28;20059;-68
2022/10/05 09:24:11;;;;;;;6.00;2.90;;;16.70;99.90;;;;;;5076740;28;20084;-67
2022/10/05 09:26:39;;;;;;;6.97;3.08;;;17.00;99.90;;;;;;5076681;28;20044;-68
2022/10/05 09:29:23;;;;;;;4.75;2.92;;;17.20;99.90;;;;;;5076518;28;20477;-68
2022/10/05 09:31:55;;;;;;;4.38;2.40;;;17.20;99.90;;;;;;5043014;28;20048;-68
2022/10/05 09:34:46;;;;;;;6.07;3.00;;;16.90;99.90;;;;;;5076468;28;20075;-69
2022/10/05 09:37:29;;;;;;;9.23;2.70;;;17.40;99.90;;;;;;5076950;28;20084;-69
2022/10/05 09:40:32;;;;;;;5.35;2.33;;;17.20;99.90;;;;;;5076951;28;20041;-69
2022/10/05 09:43:24;;;;;;;5.32;2.47;;;17.10;99.90;;;;;;5076309;28;20445;-68
2022/10/05 09:46:22;;;;;;;3.83;2.33;;;17.40;99.90;;;;;;5076287;28;20048;-68
2022/10/05 09:49:22;;;;;;;4.15;2.30;;;17.60;99.90;;;;;;5054208;28;20412;-69
2022/10/05 09:52:04;;;;;;;4.93;2.35;;;17.80;99.90;;;;;;5076927;28;20165;-69
2022/10/05 09:54:55;;;;;;;7.55;2.90;;;17.50;99.90;;;;;;5076155;28;20063;-69
2022/10/05 09:58:10;;;;;;;6.35;2.90;;;17.30;99.90;;;;;;5076657;28;20052;-68
2022/10/05 10:01:13;;;;;;;8.13;3.33;;;17.40;99.90;;;;;;4974834;28;20137;-68
2022/10/05 10:04:16;;;;;;;8.55;3.70;;;17.40;99.90;;;;;;5037334;28;20155;-68
2022/10/05 10:06:45;;;;;;;7.45;3.35;;;17.70;99.90;;;;;;5075928;28;20049;-69
2022/10/05 10:09:32;;;;;;;9.30;3.40;;;17.50;99.90;;;;;;5075831;28;20052;-69
2022/10/05 10:12:09;;;;;;;9.57;3.90;;;17.80;99.90;;;;;;5057958;28;20098;-69
2022/10/05 10:15:08;;;;;;;5.88;3.17;;;17.80;99.90;;;;;;5075057;28;20128;-69
2022/10/05 10:17:48;;;;;;;5.47;3.55;;;17.80;99.90;;;;;;5076023;28;20389;-69
2022/10/05 10:20:37;;;;;;;5.38;3.13;;;17.40;99.90;;;;;;5075651;28;20080;-68
2022/10/05 10:23:08;;;;;;;6.00;3.33;;;17.40;99.90;;;;;;5075586;28;20071;-69
2022/10/05 10:25:52;;;;;;;6.75;3.42;;;17.30;99.90;;;;;;5058487;28;20044;-70
2022/10/05 10:28:49;;;;;;;6.28;3.30;;;17.50;99.90;;;;;;5075574;28;20052;-70
2022/10/05 10:31:18;;;;;;;5.83;2.63;;;17.50;99.90;;;;;;5076252;28;20040;-69
2022/10/05 10:34:11;;;;;;;7.03;2.88;;;17.40;99.90;;;;;;5075704;28;20050;-72
2022/10/05 10:36:40;;;;;;;4.88;2.60;;;17.30;99.90;;;;;;5075406;28;20079;-68
2022/10/05 10:39:25;;;;;;;5.50;2.47;;;17.00;99.90;;;;;;5075633;28;20055;-69
2022/10/05 10:42:17;;;;;;;5.65;3.15;;;17.50;99.90;;;;;;5075299;28;20113;-70
2022/10/05 10:45:03;;;;;;;8.55;2.88;;;17.40;99.90;;;;;;5076037;28;20063;-70
2022/10/05 10:47:49;;;;;;;7.28;2.75;;;17.30;99.90;;;;;;5075226;28;20086;-67
2022/10/05 10:50:43;;;;;;;6.20;2.97;;;17.20;99.90;;;;;;5075650;28;20044;-71
2022/10/05 10:53:27;;;;;;;4.55;2.60;;;17.50;99.90;;;;;;5076177;28;20052;-70
2022/10/05 10:55:58;;;;;;;14.75;3.20;;;17.20;99.90;;;;;;5075007;28;20055;-68
2022/10/05 10:59:03;;;;;;;8.32;2.80;;;17.10;99.90;;;;;;5074789;28;20057;-70
2022/10/05 11:02:19;;;;;;;7.43;3.17;;;17.30;99.90;;;;;;5073788;28;20501;-69
2022/10/05 11:05:08;;;;;;;5.10;2.80;;;17.10;99.90;;;;;;5024011;28;20496;-69
2022/10/05 11:07:56;;;;;;;8.43;3.42;;;17.10;99.90;;;;;;5061438;28;20048;-69
2022/10/05 11:11:13;;;;;;;4.78;3.17;;;16.90;99.90;;;;;;5074759;28;20095;-69
2022/10/05 11:14:01;;;;;;;5.05;2.65;;;16.60;99.90;;;;;;5008781;28;20056;-69
2022/10/05 11:16:45;;;;;;;4.18;2.63;;;16.90;99.90;;;;;;5057654;28;20052;-70
2022/10/05 11:19:35;;;;;;;7.10;3.15;;;16.80;99.90;;;;;;5075084;28;20484;-69
2022/10/05 11:22:31;;;;;;;6.45;3.28;;;16.70;99.90;;;;;;5075004;28;20057;-69
2022/10/05 11:25:24;;;;;;;6.55;3.55;;;16.70;99.90;;;;;;5074162;28;20044;-72
2022/10/05 11:28:18;;;;;;;8.95;3.63;;;16.80;99.90;;;;;;5074211;28;20055;-71
2022/10/05 11:31:10;;;;;;;5.45;3.40;;;16.50;99.90;;;;;;5056188;28;20041;-71
2022/10/05 11:33:56;;;;;;;6.22;3.38;;;16.60;99.90;;;;;;5075021;28;20131;-70
2022/10/05 11:36:42;;;;;;;5.28;3.30;;;16.40;99.90;;;;;;5074819;28;20119;-70
2022/10/05 11:39:17;;;;;;;4.82;3.65;;;16.40;99.90;;;;;;5074206;28;20101;-70
2022/10/05 11:42:07;;;;;;;5.80;3.20;;;16.60;99.90;;;;;;5074156;28;20052;-68
2022/10/05 11:45:07;;;;;;;4.57;3.50;;;16.60;99.90;;;;;;5074570;28;20106;-71
2022/10/05 11:47:44;;;;;;;5.43;3.05;;;16.70;99.90;;;;;;5074689;28;20052;-69
2022/10/05 11:50:21;;;;;;;4.60;2.70;;;16.60;99.90;;;;;;5073907;28;20090;-69
2022/10/05 11:52:50;;;;;;;;;;;16.40;99.90;;;;;;5074446;28;20044;-68
2022/10/05 11:55:21;;;;;;;7.78;3.58;;;16.30;99.90;;;;;;5073564;28;20376;-70
2022/10/05 11:57:56;;;;;;;8.40;3.50;;;16.70;99.90;;;;;;5074641;28;20044;-70
2022/10/05 12:00:26;;;;;;;5.65;2.70;;;16.50;99.90;;;;;;5074413;28;20107;-69
2022/10/05 12:02:58;;;;;;;4.63;3.00;;;16.30;99.90;;;;;;5073700;28;20052;-69
2022/10/05 12:05:33;;;;;;;4.13;2.95;;;16.70;99.90;;;;;;5074596;28;20119;-68
2022/10/05 12:08:08;;;;;;;4.60;2.97;;;16.40;99.90;;;;;;5073709;28;20583;-71
2022/10/05 12:11:11;;;;;;;5.22;3.13;;;16.50;99.90;;;;;;5074108;28;20093;-68
2022/10/05 12:13:50;;;;;;;5.95;3.15;;;16.40;99.90;;;;;;5026483;28;20512;-69
2022/10/05 12:16:52;;;;;;;4.07;2.92;;;16.20;99.90;;;;;;5074355;28;20097;-70
2022/10/05 12:19:26;;;;;;;4.60;3.17;;;16.30;99.90;;;;;;5073544;28;20033;-71
2022/10/05 12:22:21;;;;;;;4.15;2.97;;;16.80;99.90;;;;;;5073527;28;20116;-70
2022/10/05 12:25:16;;;;;;;6.70;3.35;;;16.40;99.90;;;;;;5073445;28;20115;-69
2022/10/05 12:27:45;;;;;;;7.00;3.08;;;16.40;99.90;;;;;;5073278;28;20462;-71
2022/10/05 12:30:23;;;;;;;4.97;3.30;;;16.40;99.90;;;;;;5073236;28;20040;-71
2022/10/05 12:33:12;;;;;;;6.72;2.85;;;16.30;99.90;;;;;;5073405;28;20086;-69
2022/10/05 12:35:48;;;;;;;6.13;3.60;;;16.70;99.90;;;;;;5073006;28;20485;-71
2022/10/05 12:38:55;;;;;;;5.20;3.30;;;16.50;99.90;;;;;;5073266;28;20117;-70
2022/10/05 12:41:24;;;;;;;3.60;3.20;;;16.50;99.90;;;;;;4953419;29;20039;-71
2022/10/05 12:44:01;;;;;;;5.18;3.38;;;16.40;99.90;;;;;;4953451;29;20098;-71
2022/10/05 12:47:02;;;;;;;4.30;3.10;;;16.60;99.90;;;;;;5024232;28;20084;-69
2022/10/05 12:49:34;;;;;;;5.53;2.83;;;16.60;99.90;;;;;;5035224;28;20056;-70
2022/10/05 12:52:04;;;;;;;7.30;2.65;;;16.30;99.90;;;;;;5073909;28;20121;-70
2022/10/05 12:54:29;;;;;;;5.13;3.15;;;16.40;99.90;;;;;;5073149;28;20485;-71
2022/10/05 12:57:03;;;;;;;;;;;16.70;99.90;;;;;;5073141;28;20044;-71
2022/10/05 12:59:44;;;;;;;2.78;2.58;;;16.20;99.90;;;;;;5055010;28;20365;-69
2022/10/05 13:02:12;;;;;;;3.40;2.90;;;16.60;99.90;;;;;;5073028;28;20052;-71
2022/10/05 13:04:50;;;;;;;4.18;2.97;;;16.70;99.90;;;;;;5073052;28;20094;-70
2022/10/05 13:07:24;;;;;;;3.42;2.70;;;16.70;99.90;;;;;;5073061;28;20050;-69
2022/10/05 13:10:01;;;;;;;4.65;3.45;;;16.60;99.90;;;;;;5073232;28;20048;-70
2022/10/05 13:12:42;;;;;;;4.97;3.20;;;16.30;99.90;;;;;;5073047;28;20123;-70
2022/10/05 13:15:27;;;;;;;6.25;4.30;;;16.50;99.90;;;;;;5073004;28;20041;-68
2022/10/05 13:18:23;;;;;;;8.20;4.50;;;16.90;99.90;;;;;;5073727;28;20056;-68
2022/10/05 13:20:49;;;;;;;8.30;4.00;;;16.70;99.90;;;;;;5072911;28;20044;-68
2022/10/05 13:23:18;;;;;;;;;;;16.90;99.90;;;;;;5073280;28;20048;-70
2022/10/05 13:26:01;;;;;;;8.27;4.57;;;16.90;99.90;;;;;;5055971;28;19920;-69
2022/10/05 13:28:37;;;;;;;6.97;4.55;;;16.90;99.90;;;;;;5072524;28;20527;-68
2022/10/05 13:31:26;;;;;;;5.13;4.38;;;16.80;99.90;;;;;;5072750;28;20045;-68
2022/10/05 13:34:21;;;;;;;7.72;4.95;;;16.60;99.90;;;;;;5071907;28;20409;-70
2022/10/05 13:36:51;;;;;;;7.22;4.32;;;17.20;99.90;;;;;;5055305;28;20044;-69
2022/10/05 13:39:43;;;;;;;7.00;4.70;;;17.10;99.90;;;;;;5055371;28;20045;-69
2022/10/05 13:42:35;;;;;;;11.57;4.80;;;16.80;99.90;;;;;;5041983;28;20110;-69
2022/10/05 13:45:03;;;;;;;8.23;4.22;;;16.90;99.90;;;;;;5025709;28;20110;-69
2022/10/05 13:47:38;;;;;;;7.50;4.53;;;17.20;99.90;;;;;;5072655;28;20048;-70
2022/10/05 13:50:25;;;;;;;7.00;3.70;;;17.30;99.90;;;;;;5075626;28;20049;-68
2022/10/05 13:53:14;;;;;;;6.93;3.85;;;17.00;99.90;;;;;;5077062;28;20048;-71
2022/10/05 13:56:13;;;;;;;10.25;4.03;;;17.30;99.90;;;;;;5077364;28;20050;-68
2022/10/05 13:59:01;;;;;;;8.75;3.75;;;17.40;99.90;;;;;;5075867;28;20060;-68
2022/10/05 14:01:40;;;;;;;5.05;3.90;;;17.60;99.90;;;;;;5058764;28;20059;-70
2022/10/05 14:04:28;;;;;;;6.47;3.65;;;18.00;99.90;;;;;;5076558;28;20059;-71